Time;durP1;ratioP1;P1;durP2;ratioP2;P2;SDS_P1;SDS_P2;PMS_P1;PMS_P2;Temp;Humidity;BMP_temperature;BMP_pressure;BME280_temperature;BME280_humidity;BME280_pressure;Samples;Min_cycle;Max_cycle;Signal;HPM_P1;HPM_P2
2023/10/17 00:02:46;;;;;;;2.00;1.30;;;21.20;52.90;;;;;;5042377;28;20393;-62
2023/10/17 00:05:14;;;;;;;3.05;1.58;;;21.10;52.80;;;;;;5042210;28;20520;-65
2023/10/17 00:07:45;;;;;;;2.05;1.20;;;21.10;52.80;;;;;;5042600;28;20029;-66
2023/10/17 00:10:17;;;;;;;2.50;1.30;;;21.10;52.80;;;;;;5041331;28;20502;-66
2023/10/17 00:12:50;;;;;;;2.03;1.17;;;21.10;52.80;;;;;;5041159;28;20611;-66
2023/10/17 00:15:28;;;;;;;1.75;1.00;;;21.10;52.80;;;;;;5040023;28;20064;-67
2023/10/17 00:18:05;;;;;;;1.80;1.10;;;21.10;52.80;;;;;;5041310;28;20026;-65
2023/10/17 00:20:37;;;;;;;3.20;1.20;;;21.10;52.80;;;;;;5042339;28;20048;-65
2023/10/17 00:23:05;;;;;;;1.50;1.00;;;21.10;52.90;;;;;;5040472;28;20029;-66
2023/10/17 00:25:30;;;;;;;1.98;1.17;;;21.10;52.80;;;;;;5039829;28;20957;-61
2023/10/17 00:27:57;;;;;;;2.20;1.10;;;21.10;52.80;;;;;;5039856;28;20029;-60
2023/10/17 00:30:23;;;;;;;1.85;1.17;;;21.10;52.80;;;;;;5041037;28;20029;-62
2023/10/17 00:32:52;;;;;;;1.98;1.20;;;21.10;52.90;;;;;;5042626;28;20034;-61
2023/10/17 00:35:20;;;;;;;1.98;1.00;;;21.00;52.80;;;;;;5040746;28;20543;-60
2023/10/17 00:37:53;;;;;;;1.55;1.00;;;21.10;52.90;;;;;;5041814;28;20039;-61
2023/10/17 00:43:11;;;;;;;3.08;1.15;;;21.10;52.90;;;;;;5040919;28;20159;-60
2023/10/17 00:45:37;;;;;;;2.55;1.30;;;21.00;52.90;;;;;;5037900;28;20572;-61
2023/10/17 00:48:08;;;;;;;1.75;1.08;;;21.00;52.90;;;;;;5041641;28;20120;-61
2023/10/17 00:50:35;;;;;;;2.25;1.10;;;21.00;52.80;;;;;;5038149;28;20486;-60
2023/10/17 00:53:01;;;;;;;1.58;1.00;;;21.00;52.90;;;;;;5040592;28;20040;-61
2023/10/17 00:55:27;;;;;;;2.22;1.17;;;21.00;52.90;;;;;;5040157;28;20034;-59
2023/10/17 00:57:56;;;;;;;1.58;1.08;;;21.00;52.90;;;;;;5039394;28;20108;-61
2023/10/17 01:00:35;;;;;;;;;;;21.00;52.90;;;;;;5041501;28;20456;-61
2023/10/17 01:03:08;;;;;;;1.70;1.10;;;21.00;52.90;;;;;;5040304;28;19909;-60
2023/10/17 01:06:13;;;;;;;1.73;1.05;;;21.00;52.90;;;;;;5039949;28;20030;-60
2023/10/17 01:08:39;;;;;;;2.03;1.13;;;21.00;52.90;;;;;;5038539;28;20580;-62
2023/10/17 01:11:20;;;;;;;2.05;1.10;;;20.90;52.80;;;;;;5040144;28;20057;-60
2023/10/17 01:13:54;;;;;;;2.38;1.30;;;20.90;52.90;;;;;;5040049;28;20401;-61
2023/10/17 01:16:22;;;;;;;1.73;1.00;;;20.90;52.90;;;;;;5037385;28;20025;-65
2023/10/17 01:18:47;;;;;;;1.67;0.90;;;20.90;52.80;;;;;;5039395;28;20104;-65
2023/10/17 01:21:18;;;;;;;1.75;1.00;;;20.90;52.90;;;;;;5040961;28;20517;-65
2023/10/17 01:23:45;;;;;;;1.48;0.90;;;20.90;52.90;;;;;;5040284;28;20022;-65
2023/10/17 01:26:14;;;;;;;1.58;1.15;;;20.90;52.90;;;;;;5038341;28;20033;-64
2023/10/17 01:28:45;;;;;;;1.83;1.02;;;20.90;52.90;;;;;;5038038;28;20026;-65
2023/10/17 01:31:14;;;;;;;1.83;0.90;;;20.90;52.90;;;;;;5037211;28;20377;-64
2023/10/17 01:33:42;;;;;;;1.43;0.90;;;20.90;52.90;;;;;;5036301;28;20039;-65
2023/10/17 01:36:09;;;;;;;1.52;0.90;;;20.90;52.90;;;;;;5040855;28;20300;-67
2023/10/17 01:38:35;;;;;;;1.83;1.20;;;20.90;52.90;;;;;;5036780;28;20028;-66
2023/10/17 01:41:01;;;;;;;1.38;1.00;;;20.80;52.90;;;;;;5037056;28;20108;-67
2023/10/17 01:43:45;;;;;;;1.85;1.00;;;20.80;52.90;;;;;;5039976;28;20714;-67
2023/10/17 01:46:28;;;;;;;1.35;0.90;;;20.90;52.90;;;;;;5036162;28;20044;-67
2023/10/17 01:48:54;;;;;;;1.60;1.00;;;20.90;52.90;;;;;;5040481;28;20017;-67
2023/10/17 01:51:21;;;;;;;1.58;0.90;;;20.80;52.90;;;;;;5039567;28;20116;-66
2023/10/17 01:53:53;;;;;;;1.38;0.80;;;20.80;52.90;;;;;;5040154;28;20040;-67
2023/10/17 01:56:29;;;;;;;1.38;0.88;;;20.80;52.90;;;;;;5036786;28;20401;-66
2023/10/17 01:58:55;;;;;;;1.55;1.00;;;20.80;52.90;;;;;;5036130;28;20093;-67
2023/10/17 02:01:29;;;;;;;1.90;1.10;;;20.80;52.90;;;;;;5036221;28;20477;-66
2023/10/17 02:04:03;;;;;;;1.33;0.85;;;20.80;52.90;;;;;;5037680;28;20079;-66
2023/10/17 02:06:33;;;;;;;1.17;0.88;;;20.80;52.90;;;;;;5038630;28;20048;-65
2023/10/17 02:09:00;;;;;;;1.42;1.00;;;20.80;52.90;;;;;;5038612;28;20022;-67
2023/10/17 02:11:26;;;;;;;1.95;1.00;;;20.70;52.90;;;;;;5039133;28;20116;-67
2023/10/17 02:13:56;;;;;;;1.67;0.95;;;20.80;53.50;;;;;;5041158;28;20495;-67
2023/10/17 02:16:29;;;;;;;1.70;1.02;;;20.70;52.90;;;;;;5037370;28;20493;-66
2023/10/17 02:18:55;;;;;;;1.45;0.93;;;20.80;53.00;;;;;;5039964;28;20124;-66
2023/10/17 02:21:21;;;;;;;1.85;1.08;;;20.80;52.90;;;;;;5037611;28;20033;-66
2023/10/17 02:23:50;;;;;;;1.50;0.90;;;20.70;53.00;;;;;;5039187;28;20026;-66
2023/10/17 02:26:21;;;;;;;1.02;0.82;;;20.70;52.90;;;;;;5038732;28;20031;-65
2023/10/17 02:28:53;;;;;;;1.42;0.93;;;20.70;52.90;;;;;;5038196;28;20037;-64
2023/10/17 02:31:28;;;;;;;1.33;0.90;;;20.70;52.90;;;;;;5036367;28;20147;-63
2023/10/17 02:33:54;;;;;;;1.48;0.90;;;20.70;52.90;;;;;;5037554;28;20445;-64
2023/10/17 02:36:20;;;;;;;1.40;0.90;;;20.70;52.90;;;;;;5036985;28;20022;-64
2023/10/17 02:38:45;;;;;;;1.30;0.80;;;20.70;52.90;;;;;;5038722;28;20915;-64
2023/10/17 02:41:14;;;;;;;2.20;0.90;;;20.70;52.90;;;;;;5045002;28;20026;-64
2023/10/17 02:43:45;;;;;;;1.33;0.80;;;20.70;53.00;;;;;;5038621;28;20428;-64
2023/10/17 02:46:14;;;;;;;0.90;0.70;;;20.70;52.90;;;;;;5039015;28;20448;-66
2023/10/17 02:48:41;;;;;;;0.90;0.70;;;20.70;52.90;;;;;;5036458;28;20021;-67
2023/10/17 02:51:31;;;;;;;1.33;0.82;;;20.70;52.90;;;;;;5037862;28;20043;-65
2023/10/17 02:53:58;;;;;;;1.38;0.88;;;20.70;53.00;;;;;;5040135;28;20049;-66
2023/10/17 02:56:24;;;;;;;1.55;1.00;;;20.70;53.00;;;;;;5039272;28;20033;-66
2023/10/17 02:59:10;;;;;;;1.25;0.90;;;20.70;53.00;;;;;;5039241;28;20025;-67
2023/10/17 03:01:37;;;;;;;1.50;0.90;;;20.70;53.00;;;;;;5035701;28;20160;-65
2023/10/17 03:04:08;;;;;;;1.13;0.80;;;20.60;52.90;;;;;;5038672;28;20104;-66
2023/10/17 03:06:44;;;;;;;1.50;1.00;;;20.60;52.90;;;;;;5037875;28;20511;-66
2023/10/17 03:11:49;;;;;;;1.15;0.90;;;20.60;52.90;;;;;;5039458;28;20125;-67
2023/10/17 03:14:19;;;;;;;1.17;0.80;;;20.60;52.90;;;;;;5038866;28;20025;-66
2023/10/17 03:16:52;;;;;;;1.10;0.90;;;20.60;52.90;;;;;;5035709;28;21032;-67
2023/10/17 03:19:26;;;;;;;1.17;0.90;;;20.60;52.90;;;;;;5039054;28;20052;-66
2023/10/17 03:21:55;;;;;;;0.98;0.80;;;20.60;52.90;;;;;;5036636;28;20445;-66
2023/10/17 03:27:26;;;;;;;1.60;0.95;;;20.60;52.90;;;;;;5038761;28;20041;-66
2023/10/17 03:29:51;;;;;;;2.03;0.80;;;20.60;53.00;;;;;;5042786;28;20036;-66
2023/10/17 03:32:17;;;;;;;1.20;0.70;;;20.60;52.90;;;;;;5040557;28;20026;-66
2023/10/17 03:34:52;;;;;;;0.88;0.70;;;20.60;52.90;;;;;;5041893;28;20067;-64
2023/10/17 03:39:57;;;;;;;0.80;0.80;;;20.50;52.90;;;;;;5041871;28;20478;-64
2023/10/17 03:42:53;;;;;;;1.30;0.75;;;20.50;52.90;;;;;;5040182;28;20033;-63
2023/10/17 03:45:17;;;;;;;1.23;0.82;;;20.50;52.90;;;;;;5040895;28;20095;-64
2023/10/17 03:47:57;;;;;;;1.25;0.77;;;20.50;52.90;;;;;;5037587;28;20083;-63
2023/10/17 03:53:15;;;;;;;1.02;0.80;;;20.50;52.90;;;;;;5040823;28;20152;-64
2023/10/17 03:55:43;;;;;;;0.98;0.70;;;20.50;52.90;;;;;;5040896;28;20080;-65
2023/10/17 03:59:07;;;;;;;0.93;0.70;;;20.50;52.90;;;;;;5041838;28;20487;-65
2023/10/17 04:01:00;;;;;;;1.05;0.77;;;20.50;52.90;;;;;;5035261;28;20033;-65
2023/10/17 04:03:30;;;;;;;1.33;0.90;;;20.50;52.90;;;;;;5039340;28;20052;-65
2023/10/17 04:08:37;;;;;;;1.00;0.73;;;20.50;52.90;;;;;;5041273;28;20923;-66
2023/10/17 04:13:49;;;;;;;1.30;0.80;;;20.50;53.00;;;;;;5040091;28;20100;-66
2023/10/17 04:16:34;;;;;;;1.23;0.70;;;20.40;52.90;;;;;;5040458;28;20037;-65
2023/10/17 04:19:16;;;;;;;0.98;0.70;;;20.40;52.90;;;;;;5039168;28;20028;-63
2023/10/17 04:21:49;;;;;;;1.08;0.80;;;20.40;52.90;;;;;;5042370;28;20473;-64
2023/10/17 04:24:24;;;;;;;0.90;0.70;;;20.40;52.90;;;;;;5042139;28;20072;-64
2023/10/17 04:26:50;;;;;;;1.13;0.80;;;20.40;52.90;;;;;;5040986;28;20025;-66
2023/10/17 04:29:21;;;;;;;0.73;0.65;;;20.40;52.90;;;;;;5041908;28;20101;-65
2023/10/17 04:31:47;;;;;;;1.40;0.80;;;20.40;52.90;;;;;;5040230;28;20037;-65
2023/10/17 04:34:21;;;;;;;0.85;0.70;;;20.40;52.90;;;;;;5041050;28;20025;-65
2023/10/17 04:36:56;;;;;;;1.25;0.80;;;20.40;52.90;;;;;;5039578;28;20043;-66
2023/10/17 04:39:34;;;;;;;2.65;0.68;;;20.40;52.90;;;;;;5038990;28;20420;-66
2023/10/17 04:44:32;;;;;;;1.02;0.75;;;20.40;53.00;;;;;;5039668;28;20181;-69
2023/10/17 04:49:32;;;;;;;0.88;0.75;;;20.40;53.00;;;;;;5041889;28;20029;-69
2023/10/17 04:54:39;;;;;;;1.13;0.90;;;20.30;53.00;;;;;;5041324;28;20379;-69
2023/10/17 04:57:09;;;;;;;1.67;1.00;;;20.30;53.00;;;;;;5039529;28;20045;-68
2023/10/17 05:00:10;;;;;;;0.88;0.77;;;20.30;53.00;;;;;;5041011;28;20507;-69
2023/10/17 05:02:35;;;;;;;1.17;0.80;;;20.30;53.00;;;;;;5038485;28;20083;-68
2023/10/17 06:18:49;;;;;;;1.40;0.90;;;20.20;53.20;;;;;;5037486;28;20424;-66
2023/10/17 06:21:18;;;;;;;1.80;1.00;;;20.10;53.10;;;;;;5038530;28;20131;-65
2023/10/17 06:32:15;;;;;;;1.95;0.88;;;20.10;53.60;;;;;;5040104;28;20028;-67
2023/10/17 06:34:42;;;;;;;2.47;0.90;;;20.10;53.00;;;;;;5037204;28;20044;-66
2023/10/17 06:37:09;;;;;;;1.33;0.80;;;20.10;53.10;;;;;;5037656;28;20136;-66
2023/10/17 06:39:38;;;;;;;3.35;1.20;;;20.10;53.10;;;;;;5036135;28;20025;-66
2023/10/17 06:42:14;;;;;;;1.33;0.90;;;20.10;53.10;;;;;;5038256;28;20393;-66
2023/10/17 06:45:33;;;;;;;1.95;0.90;;;20.10;53.00;;;;;;5054212;28;20033;-66
2023/10/17 06:47:41;;;;;;;1.10;0.80;;;20.20;53.10;;;;;;5035360;28;20140;-66
2023/10/17 06:55:21;;;;;;;2.08;1.13;;;20.10;53.10;;;;;;5038129;28;20025;-66
2023/10/17 06:57:50;;;;;;;1.35;0.93;;;20.10;53.10;;;;;;5039056;28;20480;-67
2023/10/17 07:00:24;;;;;;;0.77;0.70;;;20.10;53.10;;;;;;5037871;28;20390;-66
2023/10/17 07:02:50;;;;;;;1.65;0.80;;;20.10;53.10;;;;;;5037792;28;20378;-66
2023/10/17 07:05:21;;;;;;;1.58;0.90;;;20.10;53.10;;;;;;5035670;28;20025;-61
2023/10/17 07:07:52;;;;;;;1.67;0.95;;;20.10;53.10;;;;;;5037294;28;20033;-64
2023/10/17 07:13:35;;;;;;;1.80;0.93;;;20.10;53.10;;;;;;5038957;28;20029;-62
2023/10/17 07:16:25;;;;;;;1.80;0.95;;;20.10;53.00;;;;;;5039444;28;20071;-63
2023/10/17 07:18:51;;;;;;;1.70;0.93;;;20.10;53.00;;;;;;5035698;28;20021;-61
2023/10/17 07:21:27;;;;;;;1.23;0.80;;;20.10;53.00;;;;;;5036672;28;20049;-62
2023/10/17 07:24:06;;;;;;;1.98;1.02;;;20.10;53.00;;;;;;5038864;28;20116;-63
2023/10/17 07:28:57;;;;;;;1.20;0.80;;;20.00;53.00;;;;;;5038634;28;20021;-66
2023/10/17 07:31:23;;;;;;;1.00;0.77;;;20.00;53.00;;;;;;5039583;28;20070;-66
2023/10/17 07:34:07;;;;;;;1.40;0.82;;;20.00;53.00;;;;;;5037384;28;20022;-66
2023/10/17 07:36:34;;;;;;;1.73;0.90;;;20.00;53.00;;;;;;5037496;28;20120;-66
2023/10/17 07:39:07;;;;;;;1.10;0.80;;;20.00;53.00;;;;;;5038307;28;20029;-66
2023/10/17 07:41:36;;;;;;;1.30;0.90;;;20.00;53.00;;;;;;5040338;28;20090;-66
2023/10/17 07:44:25;;;;;;;1.45;0.80;;;20.00;53.00;;;;;;5038006;28;20083;-66
2023/10/17 07:47:35;;;;;;;1.10;0.82;;;20.00;53.00;;;;;;5038308;28;20033;-68
2023/10/17 07:49:41;;;;;;;1.58;0.90;;;20.00;53.00;;;;;;5041030;28;20049;-69
2023/10/17 07:52:22;;;;;;;2.13;0.80;;;20.00;53.00;;;;;;5036670;28;20423;-69
2023/10/17 07:57:36;;;;;;;1.33;0.90;;;20.00;53.00;;;;;;5038962;28;20036;-69
2023/10/17 08:00:15;;;;;;;;;;;20.00;53.00;;;;;;5038943;28;20052;-70
2023/10/17 08:02:41;;;;;;;2.20;1.00;;;20.00;53.10;;;;;;5037407;28;19929;-69
2023/10/17 08:05:17;;;;;;;1.13;0.90;;;20.00;53.00;;;;;;5037776;28;20528;-69
2023/10/17 08:07:43;;;;;;;1.55;0.88;;;20.00;53.00;;;;;;5036157;28;20033;-69
2023/10/17 08:10:11;;;;;;;1.55;0.80;;;19.90;53.00;;;;;;5038383;28;20064;-69
2023/10/17 08:12:38;;;;;;;1.17;0.80;;;20.00;53.00;;;;;;5037892;28;20025;-69
2023/10/17 08:15:19;;;;;;;1.33;0.80;;;19.90;53.00;;;;;;5040940;28;20511;-69
2023/10/17 08:17:45;;;;;;;1.45;0.80;;;19.90;53.00;;;;;;5040899;28;20025;-67
2023/10/17 08:22:55;;;;;;;1.33;0.82;;;19.90;53.00;;;;;;5042338;28;20008;-69
2023/10/17 08:25:30;;;;;;;1.83;1.00;;;19.90;53.00;;;;;;5042703;28;20482;-69
2023/10/17 08:27:57;;;;;;;1.60;0.90;;;19.90;53.00;;;;;;5042276;28;20504;-68
2023/10/17 08:30:23;;;;;;;1.42;0.82;;;19.90;53.10;;;;;;5042075;28;20075;-69
2023/10/17 08:33:09;;;;;;;1.58;0.80;;;19.90;53.00;;;;;;5041975;28;20112;-69
2023/10/17 08:35:38;;;;;;;1.40;1.00;;;19.90;53.10;;;;;;5038074;28;20112;-64
2023/10/17 08:38:06;;;;;;;1.80;0.95;;;19.90;53.00;;;;;;5042275;28;20029;-65
2023/10/17 08:43:06;;;;;;;0.93;0.70;;;19.90;53.00;;;;;;5040218;28;20033;-65
2023/10/17 08:45:37;;;;;;;1.30;0.90;;;19.90;53.00;;;;;;5039855;28;20037;-64
2023/10/17 08:48:06;;;;;;;1.35;0.80;;;19.80;53.00;;;;;;5041593;28;20106;-64
2023/10/17 08:50:38;;;;;;;1.50;0.80;;;19.90;53.00;;;;;;5040437;28;20032;-65
2023/10/17 08:53:07;;;;;;;1.00;0.73;;;19.90;53.10;;;;;;5040486;28;20044;-65
2023/10/17 08:55:33;;;;;;;1.35;1.05;;;19.90;53.10;;;;;;5039784;28;20426;-64
2023/10/17 08:58:04;;;;;;;1.48;0.90;;;19.80;53.50;;;;;;5040205;28;20086;-65
2023/10/17 09:01:07;;;;;;;1.38;0.95;;;19.80;53.00;;;;;;5040890;28;20481;-64
2023/10/17 09:03:24;;;;;;;1.42;0.90;;;19.80;53.00;;;;;;5040034;28;20464;-64
2023/10/17 09:11:25;;;;;;;1.83;0.90;;;19.80;53.00;;;;;;5039755;28;20029;-64
2023/10/17 09:16:16;;;;;;;1.55;1.10;;;19.80;53.00;;;;;;5039158;28;20060;-64
2023/10/17 09:18:52;;;;;;;1.63;0.93;;;19.80;53.00;;;;;;5038320;28;20465;-65
2023/10/17 09:21:21;;;;;;;2.13;1.00;;;19.80;53.00;;;;;;5037498;28;20036;-64
2023/10/17 09:23:47;;;;;;;1.25;0.80;;;19.80;53.00;;;;;;5040615;28;20063;-65
2023/10/17 09:26:19;;;;;;;1.45;0.90;;;19.80;53.00;;;;;;5040249;28;20056;-69
2023/10/17 09:28:46;;;;;;;1.23;0.88;;;19.80;53.00;;;;;;5039441;28;20044;-69
2023/10/17 09:31:13;;;;;;;1.73;0.90;;;19.80;53.00;;;;;;5040498;28;20029;-69
2023/10/17 09:33:43;;;;;;;0.98;0.70;;;19.80;53.00;;;;;;5039831;28;20373;-69
2023/10/17 09:36:11;;;;;;;1.45;0.80;;;19.80;53.00;;;;;;5039198;28;20029;-69
2023/10/17 09:38:43;;;;;;;1.20;0.80;;;19.80;53.00;;;;;;5039382;28;20095;-69
2023/10/17 09:41:19;;;;;;;1.73;0.80;;;19.80;53.00;;;;;;5043822;28;20174;-69
2023/10/17 09:43:50;;;;;;;1.13;0.75;;;19.80;53.00;;;;;;5038957;28;20029;-69
2023/10/17 09:46:18;;;;;;;1.35;0.85;;;19.70;53.00;;;;;;5040518;28;20400;-65
2023/10/17 09:48:48;;;;;;;1.40;0.90;;;19.80;53.00;;;;;;5039484;28;20534;-64
2023/10/17 09:51:24;;;;;;;1.10;0.90;;;19.80;53.00;;;;;;5037785;28;20036;-65
2023/10/17 09:53:54;;;;;;;1.50;0.80;;;19.80;53.00;;;;;;5039105;28;20481;-65
2023/10/17 09:56:36;;;;;;;1.52;0.90;;;19.80;53.00;;;;;;5039248;28;20053;-64
2023/10/17 09:59:07;;;;;;;1.45;0.88;;;19.70;52.90;;;;;;5039611;28;21018;-64
2023/10/17 10:01:36;;;;;;;1.85;0.80;;;19.70;53.00;;;;;;5038802;28;20025;-65
2023/10/17 10:04:02;;;;;;;1.70;1.00;;;19.80;53.00;;;;;;5053690;28;20082;-64
2023/10/17 10:06:33;;;;;;;2.10;0.93;;;19.70;52.90;;;;;;5036950;28;20060;-65
2023/10/17 10:09:05;;;;;;;1.80;0.98;;;19.70;53.00;;;;;;5040020;28;20052;-64
2023/10/17 10:11:52;;;;;;;1.80;1.00;;;19.70;53.00;;;;;;5038655;28;20032;-65
2023/10/17 10:14:23;;;;;;;2.00;0.90;;;19.70;53.00;;;;;;5038732;28;20117;-64
2023/10/17 10:17:03;;;;;;;1.20;0.93;;;19.70;53.00;;;;;;5046650;28;20121;-65
2023/10/17 10:19:41;;;;;;;1.38;0.85;;;19.70;53.00;;;;;;5038026;28;20481;-64
2023/10/17 10:22:07;;;;;;;1.05;0.88;;;19.70;53.00;;;;;;5038771;28;20028;-64
2023/10/17 10:24:36;;;;;;;1.38;0.90;;;19.70;53.00;;;;;;5038078;28;20108;-64
2023/10/17 10:27:14;;;;;;;1.92;0.98;;;19.70;53.00;;;;;;5039860;28;20033;-64
2023/10/17 10:29:44;;;;;;;1.83;0.95;;;19.70;53.10;;;;;;5039893;28;20552;-65
2023/10/17 10:32:29;;;;;;;1.00;0.80;;;19.70;53.10;;;;;;5038027;28;20051;-64
2023/10/17 10:34:54;;;;;;;1.92;1.00;;;19.70;53.10;;;;;;5039677;28;20388;-65
2023/10/17 10:37:20;;;;;;;1.83;1.00;;;19.70;53.10;;;;;;5037448;28;20132;-64
2023/10/17 10:40:16;;;;;;;1.90;1.00;;;19.70;53.20;;;;;;5037660;28;20358;-64
2023/10/17 10:42:50;;;;;;;2.05;1.00;;;19.70;53.20;;;;;;5038906;28;20098;-65
2023/10/17 10:48:17;;;;;;;1.77;1.00;;;19.70;53.50;;;;;;5040315;28;20044;-64
2023/10/17 10:50:47;;;;;;;2.83;1.45;;;19.70;53.60;;;;;;5037810;28;20058;-64
2023/10/17 10:53:20;;;;;;;1.55;1.00;;;19.70;53.70;;;;;;5037609;28;20053;-64
2023/10/17 10:55:57;;;;;;;1.60;0.90;;;19.70;53.80;;;;;;5070593;28;20041;-61
2023/10/17 10:58:26;;;;;;;2.00;1.20;;;19.70;54.00;;;;;;5037489;28;20474;-62
2023/10/17 11:00:54;;;;;;;2.20;1.30;;;19.70;54.20;;;;;;5037631;28;20539;-62
2023/10/17 11:03:21;;;;;;;2.50;1.45;;;19.70;54.30;;;;;;5037868;28;20029;-63
2023/10/17 11:06:03;;;;;;;3.60;2.13;;;19.70;54.40;;;;;;5035943;28;20041;-62
2023/10/17 11:08:43;;;;;;;6.70;3.55;;;19.70;54.50;;;;;;5037729;28;20100;-61
2023/10/17 11:11:14;;;;;;;10.63;5.75;;;19.70;54.60;;;;;;5039844;28;20434;-60
2023/10/17 11:13:45;;;;;;;11.23;7.22;;;19.70;54.60;;;;;;5036200;28;20926;-62
2023/10/17 11:16:12;;;;;;;15.80;9.05;;;19.70;54.70;;;;;;5038917;28;20036;-66
2023/10/17 11:18:40;;;;;;;20.23;11.75;;;19.70;54.80;;;;;;5039358;28;20159;-67
2023/10/17 11:21:08;;;;;;;23.52;15.70;;;19.70;54.80;;;;;;5037096;28;20025;-68
2023/10/17 11:23:36;;;;;;;32.33;20.48;;;19.70;54.90;;;;;;5037911;28;20625;-67
2023/10/17 11:26:07;;;;;;;35.10;23.90;;;19.70;55.10;;;;;;5039651;28;20509;-68
2023/10/17 11:28:33;;;;;;;41.70;27.70;;;19.70;55.10;;;;;;5037699;28;20041;-68
2023/10/17 11:31:05;;;;;;;45.17;30.67;;;19.70;55.20;;;;;;5037733;28;20040;-68
2023/10/17 11:33:37;;;;;;;51.72;34.65;;;19.70;55.20;;;;;;5038619;28;20036;-69
2023/10/17 11:36:13;;;;;;;54.80;37.42;;;19.70;55.30;;;;;;5036472;28;20368;-69
2023/10/17 11:38:40;;;;;;;56.00;36.22;;;19.70;55.30;;;;;;5038579;28;20484;-69
2023/10/17 11:41:07;;;;;;;51.65;33.88;;;19.70;55.30;;;;;;5038295;28;20108;-70
2023/10/17 11:43:42;;;;;;;48.70;32.63;;;19.70;55.20;;;;;;5037458;28;20028;-70
2023/10/17 11:46:14;;;;;;;50.35;31.83;;;19.70;55.10;;;;;;5037072;28;20531;-68
2023/10/17 11:48:44;;;;;;;45.35;30.50;;;19.70;55.10;;;;;;5039660;28;20567;-66
2023/10/17 11:51:13;;;;;;;;;;;19.70;55.10;;;;;;5041003;28;20044;-68
2023/10/17 11:54:04;;;;;;;46.78;28.55;;;19.70;55.00;;;;;;5045333;28;19916;-68
2023/10/17 11:56:39;;;;;;;42.15;26.95;;;19.80;55.00;;;;;;5042202;28;20064;-67
2023/10/17 11:59:10;;;;;;;44.25;28.08;;;19.70;54.80;;;;;;5042640;28;20025;-66
2023/10/17 12:01:37;;;;;;;39.78;25.58;;;19.70;54.90;;;;;;5040943;28;20428;-67
2023/10/17 12:04:06;;;;;;;38.97;24.65;;;19.70;54.80;;;;;;5042221;28;20028;-66
2023/10/17 12:06:32;;;;;;;;;;;19.70;54.70;;;;;;5042313;28;20044;-67
2023/10/17 12:08:58;;;;;;;41.00;23.83;;;19.70;54.70;;;;;;5042969;28;20372;-67
2023/10/17 12:11:25;;;;;;;34.78;22.02;;;19.70;54.60;;;;;;5043000;28;20083;-67
2023/10/17 12:13:53;;;;;;;37.03;22.15;;;19.70;54.60;;;;;;5040406;28;20033;-67
2023/10/17 12:16:25;;;;;;;35.73;22.13;;;19.70;54.60;;;;;;5056068;28;20106;-67
2023/10/17 12:18:52;;;;;;;33.40;20.63;;;19.80;54.70;;;;;;5043015;28;20035;-68
2023/10/17 12:21:18;;;;;;;32.90;20.38;;;19.70;54.60;;;;;;5040295;28;20017;-69
2023/10/17 12:23:44;;;;;;;34.47;19.80;;;19.70;54.50;;;;;;5038578;28;20119;-67
2023/10/17 12:26:19;;;;;;;31.88;20.13;;;19.70;54.50;;;;;;5042033;28;20109;-69
2023/10/17 12:28:45;;;;;;;33.15;18.95;;;19.70;54.50;;;;;;5042612;28;20068;-69
2023/10/17 12:31:16;;;;;;;30.90;18.45;;;19.70;54.50;;;;;;5041378;28;20507;-69
2023/10/17 12:33:42;;;;;;;26.95;17.08;;;19.70;54.40;;;;;;5040128;28;20909;-70
2023/10/17 12:36:07;;;;;;;28.58;17.65;;;19.70;54.40;;;;;;5039860;28;20029;-68
2023/10/17 12:38:33;;;;;;;26.55;16.90;;;19.70;54.40;;;;;;5041206;28;20087;-69
2023/10/17 12:41:06;;;;;;;28.60;16.90;;;19.70;54.40;;;;;;5039683;28;20029;-69
2023/10/17 12:43:35;;;;;;;24.23;15.48;;;19.70;54.40;;;;;;5041669;28;20520;-68
2023/10/17 12:46:01;;;;;;;26.70;16.30;;;19.80;54.40;;;;;;5042320;28;20028;-69
2023/10/17 12:48:28;;;;;;;24.77;14.90;;;19.70;54.40;;;;;;5040487;28;20037;-70
2023/10/17 12:50:54;;;;;;;26.63;15.23;;;19.70;54.30;;;;;;5039650;28;20028;-69
2023/10/17 12:53:19;;;;;;;24.95;15.38;;;19.70;54.30;;;;;;5039857;28;20031;-69
2023/10/17 12:55:45;;;;;;;23.52;14.05;;;19.70;54.30;;;;;;5040288;28;20427;-69
2023/10/17 12:58:11;;;;;;;22.65;14.20;;;19.70;54.30;;;;;;5038439;28;20024;-69
2023/10/17 13:00:41;;;;;;;21.48;12.95;;;19.70;54.30;;;;;;5038470;28;20033;-69
2023/10/17 13:03:07;;;;;;;19.45;12.48;;;19.80;54.30;;;;;;5039614;28;20393;-69
2023/10/17 13:05:33;;;;;;;20.30;12.60;;;19.70;54.20;;;;;;5040559;28;20029;-70
2023/10/17 13:07:59;;;;;;;20.15;12.38;;;19.70;54.20;;;;;;5038600;28;20359;-68
2023/10/17 13:10:26;;;;;;;21.15;12.50;;;19.70;54.20;;;;;;5041544;28;20230;-69
2023/10/17 13:12:52;;;;;;;19.75;12.60;;;19.70;54.20;;;;;;5040251;28;20107;-69
2023/10/17 13:15:17;;;;;;;20.77;12.43;;;19.70;54.70;;;;;;5040727;28;20608;-70
2023/10/17 13:17:44;;;;;;;18.08;11.63;;;19.70;54.20;;;;;;5040645;28;20029;-65
2023/10/17 13:20:10;;;;;;;19.02;11.88;;;19.80;54.20;;;;;;5039631;28;20048;-64
2023/10/17 13:22:46;;;;;;;19.45;11.52;;;19.70;54.10;;;;;;5038214;28;20104;-64
2023/10/17 13:25:18;;;;;;;17.83;11.55;;;19.80;54.20;;;;;;5040395;28;20052;-65
2023/10/17 13:27:44;;;;;;;19.17;11.25;;;19.70;54.20;;;;;;5037772;28;20418;-65
2023/10/17 13:30:09;;;;;;;16.63;10.32;;;19.70;54.10;;;;;;5040666;28;20105;-65
2023/10/17 13:32:35;;;;;;;15.73;9.82;;;19.70;54.10;;;;;;5039852;28;20029;-65
2023/10/17 13:35:01;;;;;;;16.00;10.20;;;19.70;54.20;;;;;;5047173;28;20133;-64
2023/10/17 13:37:27;;;;;;;14.70;9.80;;;19.70;54.10;;;;;;5038127;28;20036;-62
2023/10/17 13:39:53;;;;;;;17.00;10.40;;;19.70;54.10;;;;;;5039536;28;20025;-63
2023/10/17 13:42:19;;;;;;;16.63;9.93;;;19.70;54.20;;;;;;5039931;28;20540;-61
2023/10/17 13:44:45;;;;;;;17.20;10.07;;;19.70;54.10;;;;;;5040751;28;20029;-61
2023/10/17 13:47:10;;;;;;;14.98;9.20;;;19.70;54.10;;;;;;5038478;28;20025;-63
2023/10/17 13:49:36;;;;;;;15.82;9.65;;;19.70;54.10;;;;;;5039221;28;20033;-62
2023/10/17 13:52:03;;;;;;;14.02;9.15;;;19.70;54.10;;;;;;5037220;28;20457;-62
2023/10/17 13:54:34;;;;;;;15.13;9.48;;;19.70;54.10;;;;;;5041758;28;20051;-61
2023/10/17 13:57:00;;;;;;;15.15;9.38;;;19.70;54.10;;;;;;5039578;28;20477;-62
2023/10/17 13:59:38;;;;;;;14.50;9.15;;;19.70;54.60;;;;;;5040720;28;20036;-62
2023/10/17 14:02:07;;;;;;;14.15;8.73;;;19.70;54.10;;;;;;5037278;28;20045;-64
2023/10/17 14:04:36;;;;;;;14.05;9.20;;;19.70;54.10;;;;;;5040964;28;20037;-60
2023/10/17 14:07:05;;;;;;;14.55;7.90;;;19.70;54.10;;;;;;5038063;28;20051;-67
2023/10/17 14:09:32;;;;;;;12.70;7.90;;;19.70;54.10;;;;;;5038988;28;20085;-67
2023/10/17 14:11:58;;;;;;;12.02;7.85;;;19.70;54.60;;;;;;5039326;28;20672;-68
2023/10/17 14:14:29;;;;;;;14.25;7.65;;;19.70;54.10;;;;;;5039203;28;20025;-68
2023/10/17 14:16:56;;;;;;;13.70;7.82;;;19.70;54.10;;;;;;5037442;28;20476;-68
2023/10/17 14:27:29;;;;;;;12.85;7.50;;;19.70;54.10;;;;;;5040071;28;20033;-69
2023/10/17 14:29:59;;;;;;;11.35;6.85;;;19.70;54.10;;;;;;5040242;28;20326;-69
2023/10/17 14:32:26;;;;;;;12.50;7.30;;;19.70;54.00;;;;;;5040851;28;20139;-70
2023/10/17 14:34:52;;;;;;;10.23;6.60;;;19.70;54.10;;;;;;5037968;28;20083;-69
2023/10/17 14:37:20;;;;;;;11.50;7.00;;;19.70;54.00;;;;;;5038594;28;20032;-69
2023/10/17 14:39:46;;;;;;;10.50;6.50;;;19.70;54.10;;;;;;5040604;28;20079;-70
2023/10/17 14:42:17;;;;;;;9.70;6.18;;;19.70;54.00;;;;;;5037312;28;20040;-69
2023/10/17 14:44:45;;;;;;;10.45;6.95;;;19.70;54.00;;;;;;5040255;28;20060;-69
2023/10/17 14:47:14;;;;;;;11.63;7.03;;;19.70;54.10;;;;;;5039628;28;20029;-69
2023/10/17 14:49:46;;;;;;;11.75;6.65;;;19.70;54.00;;;;;;5037867;28;20040;-70
2023/10/17 14:52:13;;;;;;;11.15;6.40;;;19.70;54.00;;;;;;5037624;28;20254;-69
2023/10/17 14:54:42;;;;;;;9.15;5.90;;;19.70;54.00;;;;;;5039522;28;20133;-70
2023/10/17 14:57:09;;;;;;;9.73;6.00;;;19.70;54.00;;;;;;5038951;28;20021;-69
2023/10/17 14:59:39;;;;;;;10.63;5.82;;;19.70;54.00;;;;;;5038022;28;20034;-69
2023/10/17 15:02:05;;;;;;;11.52;5.97;;;19.60;54.00;;;;;;5036744;28;20016;-69
2023/10/17 15:04:31;;;;;;;8.98;5.20;;;19.70;54.00;;;;;;5037895;28;20502;-69
2023/10/17 15:06:58;;;;;;;10.18;5.70;;;19.70;54.00;;;;;;5035342;28;20100;-69
2023/10/17 15:09:27;;;;;;;9.23;5.32;;;19.70;54.00;;;;;;5036087;28;20017;-70
2023/10/17 15:11:53;;;;;;;;;;;19.60;54.00;;;;;;5040602;28;20022;-69
2023/10/17 15:14:21;;;;;;;9.93;5.60;;;19.70;54.00;;;;;;5040745;28;20003;-69
2023/10/17 15:16:47;;;;;;;9.63;5.40;;;19.60;53.90;;;;;;5039515;28;20028;-69
2023/10/17 15:19:13;;;;;;;8.25;5.28;;;19.60;53.90;;;;;;5038288;28;20030;-70
2023/10/17 15:21:39;;;;;;;8.05;4.95;;;19.60;53.90;;;;;;5038385;28;20048;-69
2023/10/17 15:24:08;;;;;;;7.90;4.70;;;19.60;53.90;;;;;;5040913;28;20033;-69
2023/10/17 15:26:33;;;;;;;7.38;4.68;;;19.60;53.90;;;;;;5040672;28;20546;-69
2023/10/17 15:29:00;;;;;;;7.35;4.53;;;19.70;54.00;;;;;;5042695;28;20037;-69